Time;durP1;ratioP1;P1;durP2;ratioP2;P2;SDS_P1;SDS_P2;PMS_P1;PMS_P2;Temp;Humidity;BMP_temperature;BMP_pressure;BME280_temperature;BME280_humidity;BME280_pressure;Samples;Min_cycle;Max_cycle;Signal;HPM_P1;HPM_P2
2022/07/25 00:02:05;;;;;;;11.88;10.68;;;20.30;99.90;;;;;;5013211;28;20129;-83
2022/07/25 00:04:30;;;;;;;13.43;10.43;;;20.30;99.90;;;;;;5012287;28;20109;-82
2022/07/25 00:06:56;;;;;;;12.15;10.20;;;20.20;99.90;;;;;;5013874;28;20033;-82
2022/07/25 00:09:21;;;;;;;12.25;10.73;;;20.10;99.90;;;;;;5013936;28;20754;-83
2022/07/25 00:11:47;;;;;;;12.68;11.38;;;20.10;99.90;;;;;;5013527;28;20422;-82
2022/07/25 00:14:13;;;;;;;11.73;10.55;;;20.10;99.90;;;;;;5004483;28;20102;-83
2022/07/25 00:16:38;;;;;;;13.65;10.95;;;20.00;99.90;;;;;;5013876;28;20034;-83
2022/07/25 00:19:05;;;;;;;11.45;10.20;;;20.00;99.90;;;;;;4996023;28;20033;-83
2022/07/25 00:21:31;;;;;;;13.15;10.57;;;19.90;99.90;;;;;;5013144;28;20805;-83
2022/07/25 00:23:57;;;;;;;14.50;10.73;;;19.90;99.90;;;;;;5013104;28;20022;-83
2022/07/25 00:26:22;;;;;;;15.00;10.18;;;19.90;99.90;;;;;;4995795;28;20024;-83
2022/07/25 00:28:48;;;;;;;11.55;10.35;;;19.90;99.90;;;;;;5013526;28;20030;-83
2022/07/25 00:31:13;;;;;;;11.75;10.55;;;19.80;99.90;;;;;;5013885;28;20062;-81
2022/07/25 00:33:39;;;;;;;11.73;10.52;;;19.80;99.90;;;;;;5003314;28;20115;-81
2022/07/25 00:36:06;;;;;;;12.65;11.07;;;19.80;99.90;;;;;;4994252;28;20121;-81
2022/07/25 00:38:32;;;;;;;12.38;11.07;;;19.70;99.90;;;;;;5013701;28;20101;-81
2022/07/25 00:40:58;;;;;;;11.40;10.27;;;19.80;99.90;;;;;;5013186;28;20443;-81
2022/07/25 00:43:23;;;;;;;11.32;10.10;;;19.70;99.90;;;;;;5012179;28;20231;-81
2022/07/25 00:45:49;;;;;;;11.65;10.43;;;19.70;99.90;;;;;;4995920;28;20036;-81
2022/07/25 00:48:14;;;;;;;12.75;10.43;;;19.70;99.90;;;;;;5013465;28;20030;-82
2022/07/25 00:50:40;;;;;;;12.48;10.70;;;19.60;99.90;;;;;;5013548;28;20034;-81
2022/07/25 00:53:06;;;;;;;12.27;10.38;;;19.60;99.90;;;;;;5012080;28;20077;-81
2022/07/25 00:55:32;;;;;;;11.35;10.13;;;19.60;99.90;;;;;;4995552;28;20065;-81
2022/07/25 00:57:58;;;;;;;11.40;10.27;;;19.60;99.90;;;;;;5012398;28;20506;-82
2022/07/25 01:00:24;;;;;;;12.20;10.90;;;19.50;99.90;;;;;;5012694;28;20049;-81
2022/07/25 01:02:49;;;;;;;14.00;11.52;;;19.50;99.90;;;;;;5012601;28;20033;-81
2022/07/25 01:05:15;;;;;;;13.88;10.73;;;19.40;99.90;;;;;;5011144;28;20604;-82
2022/07/25 01:07:41;;;;;;;12.18;10.88;;;19.40;99.90;;;;;;4995904;28;20065;-82
2022/07/25 01:10:07;;;;;;;14.75;11.27;;;19.40;99.90;;;;;;4995699;28;20387;-82
2022/07/25 01:12:46;;;;;;;12.85;11.48;;;19.30;99.90;;;;;;5010738;28;20430;-81
2022/07/25 01:15:11;;;;;;;14.15;12.20;;;19.30;99.90;;;;;;5010226;28;20467;-81
2022/07/25 01:17:37;;;;;;;14.30;11.30;;;19.20;99.90;;;;;;4995592;28;20080;-81
2022/07/25 01:20:03;;;;;;;14.00;12.23;;;19.20;99.90;;;;;;5012219;28;20113;-81
2022/07/25 01:22:28;;;;;;;12.95;11.48;;;19.20;99.90;;;;;;5012537;28;20029;-81
2022/07/25 01:24:54;;;;;;;12.80;10.90;;;19.10;99.90;;;;;;5012543;28;20118;-82
2022/07/25 01:27:19;;;;;;;14.45;11.80;;;19.10;99.90;;;;;;5008978;28;20026;-82
2022/07/25 01:29:45;;;;;;;12.90;11.60;;;19.00;99.90;;;;;;5018376;28;20025;-82
2022/07/25 01:32:11;;;;;;;12.88;11.48;;;19.00;99.90;;;;;;5020235;28;20022;-80
2022/07/25 01:34:36;;;;;;;14.95;12.80;;;18.90;99.90;;;;;;5012111;28;20029;-80
2022/07/25 01:37:02;;;;;;;13.52;12.13;;;18.90;99.90;;;;;;5012051;28;20075;-81
2022/07/25 01:39:28;;;;;;;15.18;12.75;;;18.80;99.90;;;;;;5011986;28;20104;-81
2022/07/25 01:41:53;;;;;;;14.48;12.63;;;18.80;99.90;;;;;;4994066;28;20249;-80
2022/07/25 01:44:19;;;;;;;13.40;11.82;;;18.80;99.90;;;;;;5012247;28;20022;-81
2022/07/25 01:46:44;;;;;;;14.40;12.90;;;18.70;99.90;;;;;;5012223;28;20487;-81
2022/07/25 01:49:10;;;;;;;14.15;12.65;;;18.70;99.90;;;;;;5012645;28;20029;-81
2022/07/25 01:51:35;;;;;;;14.32;11.77;;;18.70;99.90;;;;;;5010994;28;20048;-81
2022/07/25 01:54:01;;;;;;;15.10;12.40;;;18.70;99.90;;;;;;5012211;28;20022;-80
2022/07/25 01:56:26;;;;;;;16.27;13.10;;;18.70;99.90;;;;;;4994644;28;20487;-81
2022/07/25 01:58:52;;;;;;;12.82;11.25;;;18.60;99.90;;;;;;4994496;28;20049;-80
2022/07/25 02:01:17;;;;;;;14.20;11.85;;;18.60;99.90;;;;;;4993746;28;20037;-81
2022/07/25 02:03:43;;;;;;;12.90;11.60;;;18.60;99.90;;;;;;5011635;28;20424;-81
2022/07/25 02:06:09;;;;;;;14.73;11.90;;;18.60;99.90;;;;;;4994758;28;20059;-81
2022/07/25 02:08:34;;;;;;;14.52;12.98;;;18.60;99.90;;;;;;5011264;28;20030;-81
2022/07/25 02:11:00;;;;;;;13.65;12.25;;;18.50;99.90;;;;;;4993361;28;20096;-81
2022/07/25 02:13:26;;;;;;;13.60;12.23;;;18.50;99.90;;;;;;4990769;28;20030;-81
2022/07/25 02:15:52;;;;;;;14.30;11.38;;;18.50;99.90;;;;;;5007740;28;20057;-81
2022/07/25 02:18:17;;;;;;;12.98;11.73;;;18.40;99.90;;;;;;5023939;28;20394;-81
2022/07/25 02:20:43;;;;;;;14.88;11.98;;;18.50;99.90;;;;;;5015346;28;20053;-81
2022/07/25 02:23:09;;;;;;;18.00;11.38;;;18.40;99.90;;;;;;5007748;28;20101;-82
2022/07/25 02:25:35;;;;;;;15.68;12.45;;;18.40;99.90;;;;;;5011990;28;20025;-82
2022/07/25 02:28:01;;;;;;;13.57;12.15;;;18.30;99.90;;;;;;5024655;28;20030;-81
2022/07/25 02:30:26;;;;;;;13.63;11.75;;;18.30;99.90;;;;;;5009442;28;20423;-81
2022/07/25 02:32:52;;;;;;;13.70;12.30;;;18.30;99.90;;;;;;5023676;28;20030;-81
2022/07/25 02:35:18;;;;;;;13.55;12.02;;;18.30;99.90;;;;;;4995015;28;20025;-82
2022/07/25 02:37:44;;;;;;;14.05;12.65;;;18.30;99.90;;;;;;5028180;28;20028;-81
2022/07/25 02:40:10;;;;;;;12.90;11.57;;;18.20;99.90;;;;;;5004092;28;20040;-81
2022/07/25 02:42:36;;;;;;;15.57;12.57;;;18.20;99.90;;;;;;5029160;28;20028;-81
2022/07/25 02:45:01;;;;;;;14.93;12.63;;;18.20;99.90;;;;;;5031161;28;20382;-81
2022/07/25 02:47:27;;;;;;;16.63;13.48;;;18.10;99.90;;;;;;5011102;28;20775;-82
2022/07/25 02:49:53;;;;;;;16.80;13.05;;;18.10;99.90;;;;;;5016285;28;20091;-81
2022/07/25 02:52:18;;;;;;;14.07;12.55;;;18.10;99.90;;;;;;5008578;28;20034;-81
2022/07/25 02:54:44;;;;;;;15.18;13.43;;;18.10;99.90;;;;;;5030137;28;20025;-81
2022/07/25 02:57:10;;;;;;;13.95;12.32;;;18.00;99.90;;;;;;5030727;28;20025;-81
2022/07/25 02:59:35;;;;;;;15.15;12.10;;;18.00;99.90;;;;;;5027534;28;20026;-81
2022/07/25 03:02:01;;;;;;;14.65;12.35;;;18.00;99.90;;;;;;5030772;28;20042;-82
2022/07/25 03:04:26;;;;;;;16.17;13.15;;;18.00;99.90;;;;;;5029658;28;20030;-81
2022/07/25 03:06:52;;;;;;;15.68;12.27;;;17.90;99.90;;;;;;5018128;28;20021;-81
2022/07/25 03:09:18;;;;;;;13.65;12.25;;;17.90;99.90;;;;;;4993563;28;20033;-81
2022/07/25 03:11:43;;;;;;;14.60;12.63;;;17.90;99.90;;;;;;5030175;28;20022;-82
2022/07/25 03:14:09;;;;;;;14.20;12.70;;;17.90;99.90;;;;;;5011139;28;20041;-82
2022/07/25 03:16:35;;;;;;;15.90;12.45;;;17.80;99.90;;;;;;5027934;28;20476;-81
2022/07/25 03:19:01;;;;;;;16.63;11.68;;;17.80;99.90;;;;;;5015384;28;20018;-82
2022/07/25 03:21:27;;;;;;;14.80;12.30;;;17.80;99.90;;;;;;5028044;28;20367;-81
2022/07/25 03:23:52;;;;;;;14.02;12.55;;;17.70;99.90;;;;;;5010884;28;20029;-81
2022/07/25 03:26:18;;;;;;;17.20;14.25;;;17.70;99.90;;;;;;5014357;28;20812;-81
2022/07/25 03:28:44;;;;;;;19.55;13.88;;;17.70;99.90;;;;;;5033026;28;20037;-81
2022/07/25 03:31:09;;;;;;;15.55;13.90;;;17.60;99.90;;;;;;5034676;28;20425;-82
2022/07/25 03:33:35;;;;;;;18.10;13.57;;;17.60;99.90;;;;;;5012260;28;20533;-81
2022/07/25 03:36:00;;;;;;;21.02;13.77;;;17.60;99.90;;;;;;5026674;28;20065;-81
2022/07/25 03:38:26;;;;;;;21.38;14.77;;;17.60;99.90;;;;;;5019160;28;20081;-81
2022/07/25 03:40:51;;;;;;;16.05;13.80;;;17.60;99.90;;;;;;5034410;28;20030;-81
2022/07/25 03:43:17;;;;;;;21.75;14.20;;;17.60;99.90;;;;;;5034668;28;20022;-81
2022/07/25 03:45:42;;;;;;;16.20;14.50;;;17.60;99.90;;;;;;4998901;28;20025;-81
2022/07/25 03:48:08;;;;;;;16.42;14.35;;;17.60;99.90;;;;;;5024406;28;20028;-81
2022/07/25 03:50:34;;;;;;;17.00;15.10;;;17.60;99.90;;;;;;5016312;28;20038;-82
2022/07/25 03:52:59;;;;;;;15.82;13.80;;;17.60;99.90;;;;;;5034465;28;20032;-81
2022/07/25 03:55:25;;;;;;;15.75;13.73;;;17.60;99.90;;;;;;5030807;28;20025;-82
2022/07/25 03:57:50;;;;;;;15.52;13.32;;;17.60;99.90;;;;;;5013978;28;20467;-81
2022/07/25 04:00:16;;;;;;;18.70;14.32;;;17.60;99.90;;;;;;5012506;28;20050;-81
2022/07/25 04:02:42;;;;;;;17.40;13.10;;;17.60;99.90;;;;;;5014909;28;20022;-81
2022/07/25 04:05:09;;;;;;;16.40;12.98;;;17.60;99.90;;;;;;5014113;28;20026;-82
2022/07/25 04:07:35;;;;;;;14.45;12.95;;;17.60;99.90;;;;;;4988615;28;20517;-82
2022/07/25 04:10:01;;;;;;;14.10;12.40;;;17.60;99.90;;;;;;5012212;28;20105;-75
2022/07/25 04:12:27;;;;;;;15.25;12.63;;;17.60;99.90;;;;;;5010786;28;20526;-75
2022/07/25 04:14:52;;;;;;;15.35;13.27;;;17.60;99.90;;;;;;5004624;28;20309;-76
2022/07/25 04:17:18;;;;;;;15.80;12.60;;;17.60;99.90;;;;;;5012440;28;20042;-76
2022/07/25 04:19:43;;;;;;;18.33;12.82;;;17.60;99.90;;;;;;5016423;28;20030;-76
2022/07/25 04:22:09;;;;;;;14.55;11.57;;;17.60;99.90;;;;;;5029050;28;20017;-76
2022/07/25 04:24:35;;;;;;;17.75;12.77;;;17.60;99.90;;;;;;5008561;28;20053;-76
2022/07/25 04:27:00;;;;;;;20.35;12.60;;;17.60;99.90;;;;;;5006356;28;20071;-76
2022/07/25 04:29:26;;;;;;;14.68;12.95;;;17.60;99.90;;;;;;5026461;28;20033;-73
2022/07/25 04:31:51;;;;;;;15.18;13.65;;;17.60;99.90;;;;;;5026711;28;20017;-75
2022/07/25 04:34:17;;;;;;;17.00;14.48;;;17.60;99.90;;;;;;5023407;28;20026;-75
2022/07/25 04:36:42;;;;;;;15.07;13.45;;;17.60;99.90;;;;;;5021869;28;20023;-75
2022/07/25 04:39:08;;;;;;;14.68;13.18;;;17.60;99.90;;;;;;5024386;28;20029;-74
2022/07/25 04:41:38;;;;;;;14.60;13.10;;;17.70;99.90;;;;;;5000551;28;20053;-73
2022/07/25 04:44:06;;;;;;;17.23;13.73;;;17.70;99.90;;;;;;5010034;28;20028;-73
2022/07/25 04:46:32;;;;;;;15.38;13.63;;;17.70;99.90;;;;;;5014413;28;20041;-76
2022/07/25 04:48:57;;;;;;;18.08;13.88;;;17.80;99.90;;;;;;5012529;28;20462;-76
2022/07/25 04:51:23;;;;;;;16.02;13.55;;;17.80;99.90;;;;;;5006973;28;20447;-76
2022/07/25 04:53:49;;;;;;;16.02;13.95;;;17.90;99.90;;;;;;5024439;28;20104;-76
2022/07/25 04:56:14;;;;;;;17.75;13.52;;;17.90;99.90;;;;;;5028587;28;20033;-76
2022/07/25 04:58:40;;;;;;;15.77;14.02;;;18.00;99.90;;;;;;5024793;28;20025;-76
2022/07/25 05:01:06;;;;;;;17.30;13.73;;;18.10;99.90;;;;;;5022606;28;20486;-76
2022/07/25 05:03:32;;;;;;;15.32;13.63;;;18.20;99.90;;;;;;5016691;28;20034;-76
2022/07/25 05:05:57;;;;;;;15.93;13.63;;;18.30;99.90;;;;;;5027909;28;20102;-76
2022/07/25 05:08:23;;;;;;;14.32;12.82;;;18.30;99.90;;;;;;5024194;28;20033;-76
2022/07/25 05:10:48;;;;;;;15.55;13.20;;;18.40;99.90;;;;;;5018760;28;20426;-76
2022/07/25 05:13:17;;;;;;;15.75;13.07;;;18.50;99.90;;;;;;5007673;28;20034;-75
2022/07/25 05:15:43;;;;;;;14.77;13.05;;;18.60;99.90;;;;;;5001850;28;20048;-73
2022/07/25 05:18:10;;;;;;;14.40;12.85;;;18.70;99.90;;;;;;5013934;28;20065;-73
2022/07/25 05:20:35;;;;;;;16.15;12.65;;;18.80;99.90;;;;;;4993101;28;20023;-73
2022/07/25 05:23:01;;;;;;;14.30;12.18;;;18.90;99.90;;;;;;5016928;28;20101;-73
2022/07/25 05:25:28;;;;;;;15.98;13.25;;;19.00;99.90;;;;;;5028715;28;20088;-73
2022/07/25 05:27:54;;;;;;;15.40;13.00;;;19.10;99.90;;;;;;5014000;28;20029;-73
2022/07/25 05:30:20;;;;;;;14.57;12.98;;;19.20;99.90;;;;;;5008187;28;20022;-73
2022/07/25 05:32:46;;;;;;;15.57;12.18;;;19.30;99.90;;;;;;5013543;28;20026;-73
2022/07/25 05:35:11;;;;;;;13.93;12.52;;;19.40;99.90;;;;;;5027328;28;20478;-73
2022/07/25 05:37:37;;;;;;;14.30;12.75;;;19.50;99.90;;;;;;5013558;28;20092;-73
2022/07/25 05:40:04;;;;;;;13.63;12.23;;;19.60;99.90;;;;;;5013645;28;20053;-73
2022/07/25 05:42:30;;;;;;;15.35;12.38;;;19.70;99.90;;;;;;5018911;28;20026;-73
2022/07/25 05:44:56;;;;;;;15.38;12.85;;;19.90;99.90;;;;;;5032383;28;20029;-72
2022/07/25 05:47:21;;;;;;;14.18;12.48;;;20.00;99.90;;;;;;5019137;28;20503;-73
2022/07/25 05:49:47;;;;;;;14.50;12.23;;;20.10;99.90;;;;;;5023887;28;20025;-73
2022/07/25 05:52:12;;;;;;;12.82;11.48;;;20.30;99.90;;;;;;5016509;28;20429;-72
2022/07/25 05:54:38;;;;;;;14.73;11.90;;;20.40;99.90;;;;;;5019203;28;20429;-73
2022/07/25 05:57:03;;;;;;;13.77;12.38;;;20.60;99.90;;;;;;5030966;28;20032;-73
2022/07/25 05:59:29;;;;;;;13.85;12.45;;;20.80;99.90;;;;;;5025200;28;20038;-75
2022/07/25 06:01:54;;;;;;;12.15;10.95;;;20.90;99.90;;;;;;5008869;28;20057;-75
2022/07/25 06:04:20;;;;;;;13.45;11.45;;;21.10;99.90;;;;;;5016048;28;20026;-75
2022/07/25 06:06:51;;;;;;;12.77;11.23;;;21.20;99.90;;;;;;5007767;28;20025;-75
2022/07/25 06:09:23;;;;;;;14.38;11.70;;;21.40;99.90;;;;;;5017079;28;20029;-77
2022/07/25 06:11:49;;;;;;;13.32;11.88;;;21.60;99.90;;;;;;4996634;28;20029;-75
2022/07/25 06:14:15;;;;;;;13.10;11.77;;;21.70;99.90;;;;;;5008537;28;20028;-75
2022/07/25 06:16:41;;;;;;;15.57;11.35;;;21.90;99.90;;;;;;5010946;28;20018;-74
2022/07/25 06:19:07;;;;;;;15.05;11.45;;;22.00;99.90;;;;;;5012761;28;20487;-74
2022/07/25 06:21:33;;;;;;;14.73;10.77;;;22.20;99.90;;;;;;5024357;28;20093;-74
2022/07/25 06:23:58;;;;;;;12.77;11.43;;;22.30;99.90;;;;;;5010955;28;20018;-75
2022/07/25 06:26:24;;;;;;;11.55;10.27;;;22.40;99.90;;;;;;5023231;28;20048;-74
2022/07/25 06:28:51;;;;;;;12.60;11.27;;;22.60;99.90;;;;;;5012125;28;20054;-75
2022/07/25 06:31:16;;;;;;;15.18;11.23;;;22.70;99.90;;;;;;5009956;28;20034;-75
2022/07/25 06:33:42;;;;;;;12.38;11.15;;;22.90;99.90;;;;;;5027498;28;20489;-75
2022/07/25 06:36:09;;;;;;;12.63;11.23;;;23.00;99.90;;;;;;5016568;28;20516;-75
2022/07/25 06:38:35;;;;;;;12.30;10.68;;;23.10;99.90;;;;;;5005204;28;20022;-75
2022/07/25 06:41:00;;;;;;;12.68;10.75;;;23.20;99.90;;;;;;4989146;28;20105;-75
2022/07/25 06:43:26;;;;;;;13.18;11.35;;;23.30;99.90;;;;;;5002350;28;20022;-75
2022/07/25 06:45:51;;;;;;;12.48;11.07;;;23.40;99.90;;;;;;4992555;28;20057;-75
2022/07/25 06:48:17;;;;;;;12.50;11.30;;;23.50;99.90;;;;;;4995778;28;20030;-76
2022/07/25 06:50:43;;;;;;;12.00;10.80;;;23.60;99.90;;;;;;5013963;28;20026;-77
2022/07/25 06:53:08;;;;;;;12.75;10.82;;;23.80;99.90;;;;;;5012212;28;20025;-76
2022/07/25 06:55:34;;;;;;;11.85;10.75;;;23.90;99.90;;;;;;5017902;28;20045;-75
2022/07/25 06:58:00;;;;;;;14.38;11.57;;;24.00;99.90;;;;;;4992034;28;20152;-74
2022/07/25 07:00:26;;;;;;;12.32;11.05;;;24.10;99.90;;;;;;5008861;28;20077;-75
2022/07/25 07:02:56;;;;;;;15.18;11.18;;;24.20;99.90;;;;;;5014012;28;20033;-75
2022/07/25 07:05:27;;;;;;;14.70;10.95;;;24.20;99.90;;;;;;5004385;28;20030;-75
2022/07/25 07:07:53;;;;;;;12.43;10.98;;;24.40;99.90;;;;;;5012669;28;20113;-75
2022/07/25 07:10:20;;;;;;;12.15;10.90;;;24.40;99.90;;;;;;5013301;28;21519;-76
2022/07/25 07:12:46;;;;;;;11.75;10.52;;;24.40;99.90;;;;;;5003513;28;20029;-76
2022/07/25 07:15:15;;;;;;;11.40;10.18;;;24.50;99.90;;;;;;5001359;28;20058;-76
2022/07/25 07:17:42;;;;;;;13.80;11.18;;;24.60;99.90;;;;;;5006537;28;20093;-76
2022/07/25 07:20:14;;;;;;;15.13;11.02;;;24.70;99.90;;;;;;5002331;28;20478;-76
2022/07/25 07:22:49;;;;;;;12.43;11.13;;;24.70;99.90;;;;;;5005907;28;20029;-76
2022/07/25 07:25:22;;;;;;;13.50;11.40;;;24.80;99.90;;;;;;5027357;28;20048;-76
2022/07/25 07:27:51;;;;;;;12.95;10.95;;;24.90;99.90;;;;;;5030237;28;20036;-75
2022/07/25 07:30:17;;;;;;;12.25;10.88;;;24.90;99.90;;;;;;5000294;28;20041;-75
2022/07/25 07:32:44;;;;;;;14.30;10.95;;;25.00;99.90;;;;;;5018938;28;20139;-75
2022/07/25 07:35:11;;;;;;;14.48;10.75;;;25.10;99.90;;;;;;5029942;28;20125;-76
2022/07/25 07:37:40;;;;;;;13.65;11.07;;;25.10;99.90;;;;;;5021378;28;20065;-78
2022/07/25 07:40:07;;;;;;;13.38;10.50;;;25.20;99.90;;;;;;4991328;28;20030;-76
2022/07/25 07:42:44;;;;;;;20.30;10.35;;;25.30;99.90;;;;;;5014745;28;20045;-83
2022/07/25 07:45:15;;;;;;;13.50;11.43;;;25.40;99.90;;;;;;4999307;28;20116;-82
2022/07/25 07:47:41;;;;;;;12.88;11.50;;;25.40;99.90;;;;;;4991746;28;20036;-84
2022/07/25 07:50:08;;;;;;;11.85;10.40;;;25.40;99.90;;;;;;5001667;28;20486;-84
2022/07/25 07:52:34;;;;;;;13.70;10.77;;;25.50;99.90;;;;;;5008185;28;20036;-83
2022/07/25 07:57:44;;;;;;;13.20;11.43;;;25.60;99.90;;;;;;5007232;28;20033;-83
2022/07/25 08:00:10;;;;;;;17.55;11.75;;;25.70;99.90;;;;;;5007888;28;20026;-83
2022/07/25 08:02:49;;;;;;;13.40;10.90;;;25.80;99.90;;;;;;5009160;28;20029;-83
2022/07/25 08:05:27;;;;;;;15.30;10.82;;;25.80;99.90;;;;;;5004746;28;20033;-83
2022/07/25 08:07:53;;;;;;;12.65;10.60;;;25.90;99.90;;;;;;5007861;28;20022;-83
2022/07/25 08:10:21;;;;;;;12.40;9.95;;;26.00;99.90;;;;;;4995743;28;20022;-83
2022/07/25 08:13:23;;;;;;;12.77;10.50;;;26.10;99.90;;;;;;5009145;28;20666;-84
2022/07/25 08:15:52;;;;;;;11.98;10.68;;;26.20;99.90;;;;;;5013903;28;20034;-84
2022/07/25 08:18:17;;;;;;;12.70;10.60;;;26.30;99.90;;;;;;5010839;28;20561;-83
2022/07/25 08:20:44;;;;;;;14.52;10.13;;;26.40;99.90;;;;;;5011381;28;20038;-83
2022/07/25 08:23:10;;;;;;;13.45;11.05;;;26.50;99.90;;;;;;5013375;28;20022;-84
2022/07/25 08:25:36;;;;;;;16.77;10.90;;;26.60;99.90;;;;;;5020456;28;20025;-83
2022/07/25 08:28:03;;;;;;;11.30;9.95;;;26.70;99.90;;;;;;5020248;28;20553;-86
2022/07/25 08:30:28;;;;;;;13.05;10.25;;;26.80;99.90;;;;;;4996082;28;20057;-85
2022/07/25 08:32:59;;;;;;;11.60;9.88;;;26.90;99.90;;;;;;5011386;28;20650;-84
2022/07/25 08:35:29;;;;;;;13.23;9.80;;;27.00;99.90;;;;;;5013232;28;20037;-83
2022/07/25 08:37:55;;;;;;;11.95;9.35;;;27.10;99.90;;;;;;4990021;28;20422;-84
2022/07/25 08:40:22;;;;;;;11.88;9.60;;;27.20;99.90;;;;;;5013477;28;20029;-84
2022/07/25 08:42:49;;;;;;;10.95;9.07;;;27.40;99.90;;;;;;4994822;28;20026;-83
2022/07/25 08:45:16;;;;;;;12.02;10.05;;;27.40;99.90;;;;;;5008590;28;20069;-83
2022/07/25 08:47:43;;;;;;;10.60;9.50;;;27.50;99.90;;;;;;5012585;28;20484;-83
2022/07/25 08:50:11;;;;;;;12.80;9.27;;;27.60;99.90;;;;;;5005747;28;20053;-83
2022/07/25 08:52:38;;;;;;;13.48;9.75;;;27.70;99.90;;;;;;5010323;28;20030;-83
2022/07/25 08:55:09;;;;;;;12.00;10.48;;;27.80;99.90;;;;;;5009369;28;20108;-83
2022/07/25 08:57:36;;;;;;;10.63;9.63;;;27.90;99.90;;;;;;5006809;28;20041;-83
2022/07/25 09:00:05;;;;;;;12.35;10.48;;;28.10;99.90;;;;;;5008095;28;20022;-83
2022/07/25 09:02:30;;;;;;;10.98;9.80;;;28.20;99.90;;;;;;5005881;28;20080;-83
2022/07/25 09:04:57;;;;;;;10.63;9.05;;;28.30;99.90;;;;;;5008493;28;20364;-83
2022/07/25 09:07:32;;;;;;;13.88;9.10;;;28.50;99.90;;;;;;5004144;28;20112;-83
2022/07/25 09:09:59;;;;;;;14.80;9.20;;;28.60;99.90;;;;;;5009614;28;20333;-83
2022/07/25 09:12:26;;;;;;;10.63;9.05;;;28.80;99.90;;;;;;5009066;28;20510;-83
2022/07/25 09:14:53;;;;;;;10.52;8.45;;;28.90;99.90;;;;;;5004959;28;20033;-83
2022/07/25 09:17:21;;;;;;;14.98;9.68;;;29.10;99.90;;;;;;4992203;28;20018;-83
2022/07/25 09:19:55;;;;;;;10.45;8.65;;;29.20;99.90;;;;;;4992052;28;20030;-83
2022/07/25 09:22:20;;;;;;;9.27;8.32;;;29.30;99.90;;;;;;5002867;28;20025;-84
2022/07/25 09:24:46;;;;;;;12.10;8.68;;;29.50;99.90;;;;;;5011652;28;20034;-83
2022/07/25 09:27:11;;;;;;;9.63;8.70;;;29.60;99.90;;;;;;4984943;28;20056;-83
2022/07/25 09:29:38;;;;;;;9.93;8.57;;;29.70;99.90;;;;;;5018734;28;20572;-83
2022/07/25 09:32:17;;;;;;;13.10;8.43;;;29.90;99.90;;;;;;5017452;28;20755;-84
2022/07/25 09:34:44;;;;;;;10.50;9.25;;;30.10;99.90;;;;;;5018473;28;20029;-83
2022/07/25 09:37:11;;;;;;;12.43;8.95;;;30.30;99.90;;;;;;5010798;28;20018;-84
2022/07/25 09:39:47;;;;;;;10.85;8.90;;;30.70;99.90;;;;;;5012568;28;20128;-83
2022/07/25 09:42:21;;;;;;;9.30;8.40;;;30.80;99.90;;;;;;5009170;28;20029;-84
2022/07/25 09:45:11;;;;;;;15.95;8.90;;;31.10;99.90;;;;;;5013900;28;20025;-84
2022/07/25 09:47:48;;;;;;;8.73;7.82;;;31.40;99.90;;;;;;5013321;28;20037;-84
2022/07/25 09:50:15;;;;;;;13.10;8.68;;;31.70;99.90;;;;;;5022558;28;20042;-84
2022/07/25 09:52:41;;;;;;;10.02;8.75;;;31.90;99.90;;;;;;5000377;28;20390;-83
2022/07/25 09:55:09;;;;;;;12.73;9.02;;;32.20;99.90;;;;;;4992186;28;20845;-84
2022/07/25 09:57:35;;;;;;;12.10;8.52;;;32.40;99.90;;;;;;5026374;28;20029;-83
2022/07/25 10:00:01;;;;;;;10.68;8.77;;;32.60;99.90;;;;;;5009028;28;20034;-83
2022/07/25 10:02:53;;;;;;;10.18;7.93;;;32.70;99.90;;;;;;4994775;28;20069;-83
2022/07/25 10:05:50;;;;;;;9.38;7.88;;;32.90;99.90;;;;;;5024492;28;20031;-84
2022/07/25 10:08:17;;;;;;;10.30;7.88;;;33.20;99.90;;;;;;5005390;28;20107;-84
2022/07/25 10:10:43;;;;;;;8.43;7.55;;;33.20;99.90;;;;;;5019888;28;20104;-83
2022/07/25 10:13:12;;;;;;;8.35;7.55;;;33.30;99.90;;;;;;4990614;28;20026;-84
2022/07/25 10:15:48;;;;;;;7.90;7.10;;;33.40;99.90;;;;;;5015042;28;20430;-83
2022/07/25 10:18:15;;;;;;;9.30;7.15;;;33.60;99.90;;;;;;5026771;28;20029;-83
2022/07/25 10:20:42;;;;;;;8.52;7.60;;;33.70;98.80;;;;;;5002288;28;20025;-84
2022/07/25 10:23:24;;;;;;;8.48;6.85;;;33.80;99.20;;;;;;5027466;28;20116;-83
2022/07/25 10:26:12;;;;;;;9.45;6.60;;;34.00;99.90;;;;;;5007082;28;20213;-83
2022/07/25 10:28:42;;;;;;;9.25;6.55;;;34.40;97.40;;;;;;4993066;28;20028;-84
2022/07/25 10:31:30;;;;;;;7.97;6.50;;;34.60;95.70;;;;;;5020244;28;20498;-84
2022/07/25 10:34:01;;;;;;;8.55;5.65;;;34.80;93.50;;;;;;5027073;28;20473;-84
2022/07/25 10:36:41;;;;;;;7.43;6.10;;;34.80;93.30;;;;;;5004145;28;20384;-84
2022/07/25 10:39:08;;;;;;;7.70;5.90;;;35.00;92.00;;;;;;5020888;28;20030;-84
2022/07/25 10:41:41;;;;;;;6.80;5.68;;;35.00;91.50;;;;;;5007819;28;20060;-84
2022/07/25 10:44:12;;;;;;;7.53;5.77;;;35.00;91.50;;;;;;5025169;28;20017;-84
2022/07/25 10:46:38;;;;;;;8.15;5.47;;;35.10;88.80;;;;;;4999369;28;20303;-84
2022/07/25 10:49:09;;;;;;;7.22;5.35;;;35.20;90.40;;;;;;4994917;28;20716;-84
2022/07/25 10:51:36;;;;;;;8.13;5.50;;;35.20;86.30;;;;;;5014181;28;20087;-84
2022/07/25 10:54:16;;;;;;;12.80;4.88;;;35.10;88.50;;;;;;5011238;28;20570;-83
2022/07/25 10:57:05;;;;;;;5.47;4.90;;;35.20;85.60;;;;;;5012039;28;20026;-82
2022/07/25 10:59:38;;;;;;;8.90;4.70;;;35.40;83.30;;;;;;5004185;28;20371;-82
2022/07/25 11:02:05;;;;;;;4.90;4.00;;;35.40;79.10;;;;;;5010707;28;20048;-82
2022/07/25 11:04:32;;;;;;;10.93;5.10;;;35.50;80.40;;;;;;5010957;28;20030;-81
2022/07/25 11:07:13;;;;;;;7.18;4.90;;;35.60;78.30;;;;;;5011063;28;20754;-82
2022/07/25 11:09:40;;;;;;;7.25;5.07;;;35.50;77.60;;;;;;5011484;28;20055;-81
2022/07/25 11:12:13;;;;;;;8.02;4.60;;;35.60;79.30;;;;;;5010533;28;20029;-81
2022/07/25 11:14:41;;;;;;;5.10;4.37;;;35.70;76.70;;;;;;4992664;28;20050;-82
2022/07/25 11:17:15;;;;;;;12.30;4.85;;;35.70;74.20;;;;;;5010603;28;20020;-82
2022/07/25 11:19:42;;;;;;;;;;;35.60;74.70;;;;;;5011198;28;20053;-82
2022/07/25 11:22:07;;;;;;;5.95;4.47;;;35.60;74.80;;;;;;4993381;28;20008;-82
2022/07/25 11:24:37;;;;;;;7.93;5.03;;;35.90;74.40;;;;;;4994123;28;20113;-81
2022/07/25 11:27:03;;;;;;;5.10;4.60;;;36.00;76.60;;;;;;5009424;28;20458;-82
2022/07/25 11:29:31;;;;;;;6.35;4.75;;;36.20;77.80;;;;;;5001117;28;20029;-82
2022/07/25 11:32:00;;;;;;;8.95;4.82;;;36.50;74.70;;;;;;5013548;28;20053;-81
2022/07/25 11:34:34;;;;;;;6.22;4.13;;;36.70;73.70;;;;;;5017943;28;20354;-81
2022/07/25 11:37:02;;;;;;;11.45;4.70;;;36.80;68.70;;;;;;4995663;28;20084;-81
2022/07/25 11:39:30;;;;;;;7.18;4.60;;;36.70;69.30;;;;;;5014861;28;20030;-81
2022/07/25 11:42:06;;;;;;;5.45;4.53;;;36.90;71.50;;;;;;5026840;28;20030;-81
2022/07/25 11:44:34;;;;;;;8.40;4.88;;;37.10;66.90;;;;;;5026535;28;20519;-81
2022/07/25 11:47:01;;;;;;;9.15;4.15;;;37.20;68.20;;;;;;5008434;28;20804;-82
2022/07/25 11:49:26;;;;;;;6.18;4.88;;;37.30;66.00;;;;;;5013629;28;20022;-82
2022/07/25 11:51:53;;;;;;;6.25;3.95;;;37.50;65.40;;;;;;5014578;28;20548;-81
2022/07/25 11:54:18;;;;;;;6.30;4.32;;;37.60;63.80;;;;;;5011029;28;20485;-81
2022/07/25 11:56:46;;;;;;;4.88;4.00;;;37.80;63.60;;;;;;5025366;28;20033;-80
2022/07/25 11:59:12;;;;;;;4.28;3.70;;;38.10;65.20;;;;;;5017183;28;20092;-80
2022/07/25 12:01:40;;;;;;;8.57;4.32;;;38.20;62.30;;;;;;5023378;28;20057;-80
2022/07/25 12:04:15;;;;;;;8.18;4.20;;;38.50;61.30;;;;;;5002928;28;20029;-82
2022/07/25 12:06:42;;;;;;;6.10;4.38;;;38.40;59.20;;;;;;5031738;28;20028;-79
2022/07/25 12:09:16;;;;;;;7.30;5.00;;;38.30;59.70;;;;;;5007540;28;20025;-82
2022/07/25 12:11:42;;;;;;;;;;;38.20;60.10;;;;;;4999869;28;20026;-80
2022/07/25 12:14:08;;;;;;;7.63;5.10;;;38.00;61.10;;;;;;5016172;28;19908;-79
2022/07/25 12:16:35;;;;;;;7.85;5.05;;;37.60;60.60;;;;;;5014790;28;20029;-79
2022/07/25 12:19:00;;;;;;;5.22;4.40;;;37.50;61.30;;;;;;5014554;28;20026;-79
2022/07/25 12:21:26;;;;;;;7.15;4.68;;;37.50;60.80;;;;;;4995777;28;20378;-80
2022/07/25 12:23:52;;;;;;;7.15;4.65;;;37.50;62.20;;;;;;4996153;28;20030;-79
2022/07/25 12:26:18;;;;;;;5.95;5.00;;;37.50;62.40;;;;;;5013795;28;20479;-80
2022/07/25 12:28:44;;;;;;;5.05;4.53;;;37.80;61.20;;;;;;5027747;28;20018;-79
2022/07/25 12:31:10;;;;;;;8.10;4.70;;;37.90;60.30;;;;;;5022612;28;20140;-79
2022/07/25 12:33:35;;;;;;;7.70;4.70;;;38.20;60.60;;;;;;5015413;28;20463;-80
2022/07/25 12:36:02;;;;;;;5.85;5.10;;;38.30;58.90;;;;;;5008144;28;20031;-79
2022/07/25 12:38:28;;;;;;;6.25;4.80;;;38.40;58.40;;;;;;5032634;28;20430;-80